sensor_id;sensor_type;location;lat;lon;timestamp;pressure;altitude;pressure_sealevel;temperature;humidity
41800;BME280;27468;47.460;19.034;2023-11-19T00:02:07;100995.56;;;1.93;94.84
41800;BME280;27468;47.460;19.034;2023-11-19T00:04:36;100961.22;;;1.71;94.55
41800;BME280;27468;47.460;19.034;2023-11-19T00:07:02;100992.03;;;1.91;94.74
41800;BME280;27468;47.460;19.034;2023-11-19T00:09:29;100974.50;;;1.83;95.56
41800;BME280;27468;47.460;19.034;2023-11-19T00:11:55;100934.19;;;1.64;94.94
41800;BME280;27468;47.460;19.034;2023-11-19T00:14:20;100986.81;;;1.90;94.98
41800;BME280;27468;47.460;19.034;2023-11-19T00:16:46;100925.34;;;1.57;95.06
41800;BME280;27468;47.460;19.034;2023-11-19T00:19:11;100989.47;;;1.93;94.35
41800;BME280;27468;47.460;19.034;2023-11-19T00:21:37;100927.81;;;1.51;95.23
41800;BME280;27468;47.460;19.034;2023-11-19T00:24:02;101001.59;;;1.92;96.02
41800;BME280;27468;47.460;19.034;2023-11-19T00:26:29;100927.84;;;1.53;95.69
41800;BME280;27468;47.460;19.034;2023-11-19T00:28:55;101002.47;;;1.93;95.40
41800;BME280;27468;47.460;19.034;2023-11-19T00:31:21;101008.38;;;1.86;96.08
41800;BME280;27468;47.460;19.034;2023-11-19T00:33:47;101026.66;;;1.89;97.07
41800;BME280;27468;47.460;19.034;2023-11-19T00:36:12;100987.16;;;1.69;96.74
41800;BME280;27468;47.460;19.034;2023-11-19T00:38:38;101031.28;;;2.01;96.53
41800;BME280;27468;47.460;19.034;2023-11-19T00:41:04;101039.13;;;2.02;96.98
41800;BME280;27468;47.460;19.034;2023-11-19T00:43:29;100997.94;;;1.84;96.43
41800;BME280;27468;47.460;19.034;2023-11-19T00:45:54;100982.34;;;1.84;96.11
41800;BME280;27468;47.460;19.034;2023-11-19T00:48:20;100970.03;;;1.77;96.12
41800;BME280;27468;47.460;19.034;2023-11-19T00:50:45;100988.56;;;1.91;95.55
41800;BME280;27468;47.460;19.034;2023-11-19T00:53:11;100993.72;;;1.89;95.54
41800;BME280;27468;47.460;19.034;2023-11-19T00:55:37;100978.78;;;1.81;95.42
41800;BME280;27468;47.460;19.034;2023-11-19T00:58:02;101007.84;;;1.99;96.05
41800;BME280;27468;47.460;19.034;2023-11-19T01:00:28;100990.38;;;1.93;95.37
41800;BME280;27468;47.460;19.034;2023-11-19T01:02:54;101014.81;;;2.00;95.41
41800;BME280;27468;47.460;19.034;2023-11-19T01:05:22;100965.50;;;1.69;96.27
41800;BME280;27468;47.460;19.034;2023-11-19T01:07:48;100969.91;;;1.71;95.71
41800;BME280;27468;47.460;19.034;2023-11-19T01:10:14;101020.03;;;2.02;95.43
41800;BME280;27468;47.460;19.034;2023-11-19T01:12:41;100976.00;;;1.73;95.62
41800;BME280;27468;47.460;19.034;2023-11-19T01:15:07;101015.28;;;1.85;96.13
41800;BME280;27468;47.460;19.034;2023-11-19T01:17:33;100954.53;;;1.47;96.43
41800;BME280;27468;47.460;19.034;2023-11-19T01:19:58;100993.25;;;1.70;96.15
41800;BME280;27468;47.460;19.034;2023-11-19T01:22:24;100986.41;;;1.75;95.65
41800;BME280;27468;47.460;19.034;2023-11-19T01:24:50;101003.88;;;1.80;95.56
41800;BME280;27468;47.460;19.034;2023-11-19T01:27:17;100989.06;;;1.76;94.79
41800;BME280;27468;47.460;19.034;2023-11-19T01:29:42;100997.78;;;1.78;94.96
41800;BME280;27468;47.460;19.034;2023-11-19T01:32:08;100998.53;;;1.73;96.00
41800;BME280;27468;47.460;19.034;2023-11-19T01:34:33;100950.28;;;1.49;95.68
41800;BME280;27468;47.460;19.034;2023-11-19T01:36:59;100935.28;;;1.39;95.48
41800;BME280;27468;47.460;19.034;2023-11-19T01:39:24;100964.38;;;1.59;96.51
41800;BME280;27468;47.460;19.034;2023-11-19T01:41:49;100981.00;;;1.65;97.00
41800;BME280;27468;47.460;19.034;2023-11-19T01:44:15;100969.66;;;1.62;96.80
41800;BME280;27468;47.460;19.034;2023-11-19T01:46:42;100967.84;;;1.59;96.86
41800;BME280;27468;47.460;19.034;2023-11-19T01:49:09;100946.06;;;1.54;96.54
41800;BME280;27468;47.460;19.034;2023-11-19T01:51:35;100938.19;;;1.51;97.21
41800;BME280;27468;47.460;19.034;2023-11-19T01:54:01;100942.72;;;1.58;96.73
41800;BME280;27468;47.460;19.034;2023-11-19T01:56:27;100970.06;;;1.79;96.48
41800;BME280;27468;47.460;19.034;2023-11-19T01:58:54;100907.78;;;1.47;96.36
41800;BME280;27468;47.460;19.034;2023-11-19T02:01:21;100922.72;;;1.56;96.62
41800;BME280;27468;47.460;19.034;2023-11-19T02:03:47;100942.09;;;1.69;96.43
41800;BME280;27468;47.460;19.034;2023-11-19T02:06:12;100976.28;;;1.85;96.82
41800;BME280;27468;47.460;19.034;2023-11-19T02:08:39;100902.53;;;1.46;96.98
41800;BME280;27468;47.460;19.034;2023-11-19T02:11:05;100921.84;;;1.55;96.73
41800;BME280;27468;47.460;19.034;2023-11-19T02:13:32;100946.38;;;1.67;97.30
41800;BME280;27468;47.460;19.034;2023-11-19T02:15:58;100941.19;;;1.67;96.90
41800;BME280;27468;47.460;19.034;2023-11-19T02:18:27;100970.91;;;1.78;96.63
41800;BME280;27468;47.460;19.034;2023-11-19T02:21:00;100944.53;;;1.62;96.34
41800;BME280;27468;47.460;19.034;2023-11-19T02:23:28;100977.78;;;1.76;95.76
41800;BME280;27468;47.460;19.034;2023-11-19T02:26:16;100935.72;;;1.56;96.13
41800;BME280;27468;47.460;19.034;2023-11-19T02:28:43;100961.03;;;1.63;96.95
41800;BME280;27468;47.460;19.034;2023-11-19T02:31:10;100913.69;;;1.42;96.85
41800;BME280;27468;47.460;19.034;2023-11-19T02:33:39;100954.88;;;1.59;96.68
41800;BME280;27468;47.460;19.034;2023-11-19T02:36:05;100890.50;;;1.16;96.76
41800;BME280;27468;47.460;19.034;2023-11-19T02:38:32;100893.81;;;1.09;96.75
41800;BME280;27468;47.460;19.034;2023-11-19T02:40:58;100906.13;;;1.18;96.67
41800;BME280;27468;47.460;19.034;2023-11-19T02:43:23;100937.75;;;1.35;97.42
41800;BME280;27468;47.460;19.034;2023-11-19T02:45:49;100928.97;;;1.29;97.45
41800;BME280;27468;47.460;19.034;2023-11-19T02:48:14;100903.50;;;1.15;98.13
41800;BME280;27468;47.460;19.034;2023-11-19T02:50:42;100917.59;;;1.26;97.51
41800;BME280;27468;47.460;19.034;2023-11-19T02:53:07;100858.06;;;0.99;96.74
41800;BME280;27468;47.460;19.034;2023-11-19T02:55:32;100873.00;;;1.08;97.15
41800;BME280;27468;47.460;19.034;2023-11-19T02:58:03;100940.56;;;1.42;96.95
41800;BME280;27468;47.460;19.034;2023-11-19T03:00:34;100931.69;;;1.34;97.40
41800;BME280;27468;47.460;19.034;2023-11-19T03:03:08;100871.31;;;1.10;98.36
41800;BME280;27468;47.460;19.034;2023-11-19T03:05:48;100895.94;;;1.25;98.83
41800;BME280;27468;47.460;19.034;2023-11-19T03:08:17;100883.63;;;1.18;97.96
41800;BME280;27468;47.460;19.034;2023-11-19T03:10:42;100837.94;;;0.90;98.22
41800;BME280;27468;47.460;19.034;2023-11-19T03:13:12;100850.28;;;0.99;97.84
41800;BME280;27468;47.460;19.034;2023-11-19T03:15:39;100871.41;;;1.13;97.91
41800;BME280;27468;47.460;19.034;2023-11-19T03:18:04;100879.50;;;1.25;97.66
41800;BME280;27468;47.460;19.034;2023-11-19T03:20:30;100888.25;;;1.28;97.56
41800;BME280;27468;47.460;19.034;2023-11-19T03:22:55;100842.53;;;1.01;97.85
41800;BME280;27468;47.460;19.034;2023-11-19T03:25:25;100844.41;;;1.06;97.69
41800;BME280;27468;47.460;19.034;2023-11-19T03:27:52;100854.16;;;1.15;97.29
41800;BME280;27468;47.460;19.034;2023-11-19T03:30:18;100897.91;;;1.34;96.95
41800;BME280;27468;47.460;19.034;2023-11-19T03:32:44;100826.81;;;0.96;97.36
41800;BME280;27468;47.460;19.034;2023-11-19T03:35:09;100901.44;;;1.36;97.01
41800;BME280;27468;47.460;19.034;2023-11-19T03:37:36;100918.00;;;1.41;96.91
41800;BME280;27468;47.460;19.034;2023-11-19T03:40:02;100886.72;;;1.37;97.40
41800;BME280;27468;47.460;19.034;2023-11-19T03:42:31;100802.50;;;0.92;99.58
41800;BME280;27468;47.460;19.034;2023-11-19T03:44:56;100868.22;;;1.24;100.00
41800;BME280;27468;47.460;19.034;2023-11-19T03:47:22;100823.63;;;1.06;99.87
41800;BME280;27468;47.460;19.034;2023-11-19T03:49:49;100873.75;;;1.38;99.47
41800;BME280;27468;47.460;19.034;2023-11-19T03:52:14;100851.94;;;1.31;99.68
41800;BME280;27468;47.460;19.034;2023-11-19T03:54:40;100781.94;;;1.00;98.95
41800;BME280;27468;47.460;19.034;2023-11-19T03:57:05;100823.34;;;1.30;99.16
41800;BME280;27468;47.460;19.034;2023-11-19T03:59:30;100855.78;;;1.46;99.65
41800;BME280;27468;47.460;19.034;2023-11-19T04:01:56;100844.38;;;1.41;100.00
41800;BME280;27468;47.460;19.034;2023-11-19T04:04:22;100837.16;;;1.29;100.00
41800;BME280;27468;47.460;19.034;2023-11-19T04:06:47;100820.50;;;1.21;100.00
41800;BME280;27468;47.460;19.034;2023-11-19T04:09:13;100789.13;;;1.10;100.00
41800;BME280;27468;47.460;19.034;2023-11-19T04:11:38;100814.38;;;1.17;100.00
41800;BME280;27468;47.460;19.034;2023-11-19T04:14:05;100807.50;;;1.19;100.00
41800;BME280;27468;47.460;19.034;2023-11-19T04:16:30;100810.09;;;1.19;100.00
41800;BME280;27468;47.460;19.034;2023-11-19T04:18:56;100783.56;;;0.96;100.00
41800;BME280;27468;47.460;19.034;2023-11-19T04:21:21;100846.59;;;1.25;100.00
41800;BME280;27468;47.460;19.034;2023-11-19T04:23:48;100774.72;;;0.88;100.00
41800;BME280;27468;47.460;19.034;2023-11-19T04:26:14;100767.72;;;0.86;100.00
41800;BME280;27468;47.460;19.034;2023-11-19T04:28:41;100828.19;;;1.15;100.00
41800;BME280;27468;47.460;19.034;2023-11-19T04:31:06;100753.56;;;0.73;100.00
41800;BME280;27468;47.460;19.034;2023-11-19T04:33:31;100810.56;;;1.03;100.00
41800;BME280;27468;47.460;19.034;2023-11-19T04:35:57;100799.19;;;0.98;100.00
41800;BME280;27468;47.460;19.034;2023-11-19T04:38:22;100802.69;;;1.00;100.00
41800;BME280;27468;47.460;19.034;2023-11-19T04:40:48;100821.59;;;0.94;100.00
41800;BME280;27468;47.460;19.034;2023-11-19T04:43:13;100784.44;;;0.64;100.00
41800;BME280;27468;47.460;19.034;2023-11-19T04:45:38;100832.63;;;0.86;100.00
41800;BME280;27468;47.460;19.034;2023-11-19T04:48:05;100859.69;;;0.95;100.00
41800;BME280;27468;47.460;19.034;2023-11-19T04:50:30;100785.03;;;0.52;100.00
41800;BME280;27468;47.460;19.034;2023-11-19T04:52:56;100804.31;;;0.63;100.00
41800;BME280;27468;47.460;19.034;2023-11-19T04:55:21;100840.16;;;0.77;100.00
41800;BME280;27468;47.460;19.034;2023-11-19T04:57:47;100842.00;;;0.81;100.00
41800;BME280;27468;47.460;19.034;2023-11-19T05:00:13;100813.13;;;0.69;100.00
41800;BME280;27468;47.460;19.034;2023-11-19T05:02:39;100834.56;;;0.94;100.00
41800;BME280;27468;47.460;19.034;2023-11-19T05:05:04;100854.00;;;1.09;100.00
41800;BME280;27468;47.460;19.034;2023-11-19T05:07:30;100830.59;;;1.07;100.00
41800;BME280;27468;47.460;19.034;2023-11-19T05:09:56;100793.63;;;0.84;100.00
41800;BME280;27468;47.460;19.034;2023-11-19T05:12:22;100824.44;;;1.04;100.00
41800;BME280;27468;47.460;19.034;2023-11-19T05:14:48;100783.28;;;0.86;100.00
41800;BME280;27468;47.460;19.034;2023-11-19T05:17:17;100813.88;;;0.97;100.00
41800;BME280;27468;47.460;19.034;2023-11-19T05:19:43;100804.25;;;0.93;100.00
41800;BME280;27468;47.460;19.034;2023-11-19T05:22:08;100828.78;;;1.05;100.00
41800;BME280;27468;47.460;19.034;2023-11-19T05:24:34;100836.84;;;1.17;100.00
41800;BME280;27468;47.460;19.034;2023-11-19T05:27:01;100828.53;;;1.30;100.00
41800;BME280;27468;47.460;19.034;2023-11-19T05:29:27;100823.00;;;1.15;100.00
41800;BME280;27468;47.460;19.034;2023-11-19T05:31:52;100782.63;;;0.93;100.00
41800;BME280;27468;47.460;19.034;2023-11-19T05:34:19;100846.78;;;1.33;100.00
41800;BME280;27468;47.460;19.034;2023-11-19T05:36:45;100776.94;;;1.08;100.00
41800;BME280;27468;47.460;19.034;2023-11-19T05:39:11;100755.91;;;0.97;100.00
41800;BME280;27468;47.460;19.034;2023-11-19T05:41:36;100797.09;;;1.19;100.00
41800;BME280;27468;47.460;19.034;2023-11-19T05:44:02;100771.63;;;1.03;100.00
41800;BME280;27468;47.460;19.034;2023-11-19T05:46:27;100805.00;;;1.24;99.95
41800;BME280;27468;47.460;19.034;2023-11-19T05:48:53;100777.94;;;1.13;99.68
41800;BME280;27468;47.460;19.034;2023-11-19T05:51:18;100783.13;;;1.13;99.90
41800;BME280;27468;47.460;19.034;2023-11-19T05:53:44;100825.81;;;1.25;99.83
41800;BME280;27468;47.460;19.034;2023-11-19T05:56:11;100802.91;;;1.08;99.88
41800;BME280;27468;47.460;19.034;2023-11-19T05:58:36;100818.91;;;1.26;99.53
41800;BME280;27468;47.460;19.034;2023-11-19T06:01:02;100771.19;;;0.86;100.00
41800;BME280;27468;47.460;19.034;2023-11-19T06:03:28;100760.78;;;0.85;100.00
41800;BME280;27468;47.460;19.034;2023-11-19T06:05:54;100783.56;;;0.96;100.00
41800;BME280;27468;47.460;19.034;2023-11-19T06:08:20;100762.44;;;0.83;100.00
41800;BME280;27468;47.460;19.034;2023-11-19T06:10:48;100788.09;;;1.04;100.00
41800;BME280;27468;47.460;19.034;2023-11-19T06:13:16;100790.63;;;1.02;100.00
41800;BME280;27468;47.460;19.034;2023-11-19T06:15:42;100779.19;;;0.94;100.00
41800;BME280;27468;47.460;19.034;2023-11-19T06:18:08;100794.50;;;1.19;100.00
41800;BME280;27468;47.460;19.034;2023-11-19T06:20:33;100825.44;;;1.45;100.00
41800;BME280;27468;47.460;19.034;2023-11-19T06:22:59;100800.81;;;1.29;100.00
41800;BME280;27468;47.460;19.034;2023-11-19T06:25:25;100763.16;;;1.10;100.00
41800;BME280;27468;47.460;19.034;2023-11-19T06:27:51;100764.19;;;1.18;100.00
41800;BME280;27468;47.460;19.034;2023-11-19T06:30:17;100802.28;;;1.54;100.00
41800;BME280;27468;47.460;19.034;2023-11-19T06:32:42;100812.84;;;1.61;100.00
41800;BME280;27468;47.460;19.034;2023-11-19T06:35:08;100767.34;;;1.41;100.00
41800;BME280;27468;47.460;19.034;2023-11-19T06:37:35;100783.13;;;1.50;100.00
41800;BME280;27468;47.460;19.034;2023-11-19T06:40:01;100768.28;;;1.45;100.00
41800;BME280;27468;47.460;19.034;2023-11-19T06:42:26;100775.44;;;1.55;100.00
41800;BME280;27468;47.460;19.034;2023-11-19T06:44:52;100782.56;;;1.63;100.00
41800;BME280;27468;47.460;19.034;2023-11-19T06:47:18;100782.53;;;1.62;100.00
41800;BME280;27468;47.460;19.034;2023-11-19T06:49:47;100736.25;;;1.46;100.00
41800;BME280;27468;47.460;19.034;2023-11-19T06:52:13;100782.81;;;1.76;100.00
41800;BME280;27468;47.460;19.034;2023-11-19T06:54:39;100790.81;;;1.85;99.92
41800;BME280;27468;47.460;19.034;2023-11-19T06:57:04;100757.75;;;1.78;99.93
41800;BME280;27468;47.460;19.034;2023-11-19T06:59:30;100745.69;;;1.81;99.85
41800;BME280;27468;47.460;19.034;2023-11-19T07:01:56;100780.94;;;2.08;99.49
41800;BME280;27468;47.460;19.034;2023-11-19T07:04:21;100751.28;;;1.99;99.44
41800;BME280;27468;47.460;19.034;2023-11-19T07:06:47;100748.66;;;1.98;99.37
41800;BME280;27468;47.460;19.034;2023-11-19T07:09:14;100791.00;;;2.35;99.52
41800;BME280;27468;47.460;19.034;2023-11-19T07:11:40;100768.38;;;2.32;99.53
41800;BME280;27468;47.460;19.034;2023-11-19T07:14:09;100759.84;;;2.39;99.20
41800;BME280;27468;47.460;19.034;2023-11-19T07:16:35;100749.44;;;2.39;99.03
41800;BME280;27468;47.460;19.034;2023-11-19T07:19:07;100767.91;;;2.51;98.61
41800;BME280;27468;47.460;19.034;2023-11-19T07:21:33;100765.28;;;2.50;98.58
41800;BME280;27468;47.460;19.034;2023-11-19T07:23:58;100800.31;;;2.67;98.46
41800;BME280;27468;47.460;19.034;2023-11-19T07:26:25;100761.91;;;2.55;98.52
41800;BME280;27468;47.460;19.034;2023-11-19T07:28:50;100764.75;;;2.69;98.35
41800;BME280;27468;47.460;19.034;2023-11-19T07:31:16;100795.41;;;2.84;97.96
41800;BME280;27468;47.460;19.034;2023-11-19T07:33:41;100784.13;;;2.83;97.70
41800;BME280;27468;47.460;19.034;2023-11-19T07:36:09;100786.88;;;2.94;97.40
41800;BME280;27468;47.460;19.034;2023-11-19T07:38:34;100798.31;;;3.02;97.29
41800;BME280;27468;47.460;19.034;2023-11-19T07:41:00;100765.19;;;2.93;97.40
41800;BME280;27468;47.460;19.034;2023-11-19T07:43:26;100746.06;;;2.93;97.08
41800;BME280;27468;47.460;19.034;2023-11-19T07:45:51;100789.97;;;3.21;97.02
41800;BME280;27468;47.460;19.034;2023-11-19T07:48:17;100796.09;;;3.23;96.91
41800;BME280;27468;47.460;19.034;2023-11-19T07:50:48;100748.06;;;3.08;96.87
41800;BME280;27468;47.460;19.034;2023-11-19T07:53:16;100794.47;;;3.31;96.86
41800;BME280;27468;47.460;19.034;2023-11-19T07:55:41;100797.28;;;3.44;97.05
41800;BME280;27468;47.460;19.034;2023-11-19T07:58:06;100772.78;;;3.33;97.28
41800;BME280;27468;47.460;19.034;2023-11-19T08:00:32;100779.00;;;3.41;97.65
41800;BME280;27468;47.460;19.034;2023-11-19T08:02:57;100755.38;;;3.30;98.12
41800;BME280;27468;47.460;19.034;2023-11-19T08:05:23;100699.38;;;3.05;98.12
41800;BME280;27468;47.460;19.034;2023-11-19T08:07:50;100778.31;;;3.55;98.29
41800;BME280;27468;47.460;19.034;2023-11-19T08:10:16;100678.66;;;3.11;97.85
41800;BME280;27468;47.460;19.034;2023-11-19T08:12:41;100730.53;;;3.55;97.64
41800;BME280;27468;47.460;19.034;2023-11-19T08:15:07;100691.31;;;3.47;96.88
41800;BME280;27468;47.460;19.034;2023-11-19T08:17:33;100700.16;;;3.58;96.36
41800;BME280;27468;47.460;19.034;2023-11-19T08:19:58;100724.78;;;3.79;96.05
41800;BME280;27468;47.460;19.034;2023-11-19T08:22:25;100713.34;;;3.71;95.90
41800;BME280;27468;47.460;19.034;2023-11-19T08:24:52;100693.47;;;3.77;95.97
41800;BME280;27468;47.460;19.034;2023-11-19T08:27:17;100650.75;;;3.68;95.95
41800;BME280;27468;47.460;19.034;2023-11-19T08:29:42;100648.25;;;3.78;96.04
41800;BME280;27468;47.460;19.034;2023-11-19T08:32:08;100635.97;;;3.67;95.95
41800;BME280;27468;47.460;19.034;2023-11-19T08:34:33;100732.91;;;4.05;95.49
41800;BME280;27468;47.460;19.034;2023-11-19T08:36:59;100739.78;;;3.96;95.22
41800;BME280;27468;47.460;19.034;2023-11-19T08:39:24;100690.91;;;3.82;94.62
41800;BME280;27468;47.460;19.034;2023-11-19T08:41:50;100656.16;;;3.83;94.38
41800;BME280;27468;47.460;19.034;2023-11-19T08:44:16;100714.00;;;4.24;94.49
41800;BME280;27468;47.460;19.034;2023-11-19T08:46:50;100657.13;;;3.92;94.30
41800;BME280;27468;47.460;19.034;2023-11-19T08:49:16;100686.09;;;4.18;94.17
41800;BME280;27468;47.460;19.034;2023-11-19T08:51:42;100673.16;;;4.27;94.12
41800;BME280;27468;47.460;19.034;2023-11-19T08:54:08;100671.38;;;4.23;94.07
41800;BME280;27468;47.460;19.034;2023-11-19T08:56:33;100727.34;;;4.50;93.19
41800;BME280;27468;47.460;19.034;2023-11-19T08:59:00;100678.59;;;4.49;93.15
41800;BME280;27468;47.460;19.034;2023-11-19T09:01:26;100648.84;;;4.33;92.21
41800;BME280;27468;47.460;19.034;2023-11-19T09:03:51;100665.41;;;4.35;91.19
41800;BME280;27468;47.460;19.034;2023-11-19T09:06:17;100670.72;;;4.46;91.16
41800;BME280;27468;47.460;19.034;2023-11-19T09:08:43;100679.47;;;4.51;90.18
41800;BME280;27468;47.460;19.034;2023-11-19T09:11:08;100684.75;;;4.55;90.03
41800;BME280;27468;47.460;19.034;2023-11-19T09:13:35;100707.50;;;4.72;90.32
41800;BME280;27468;47.460;19.034;2023-11-19T09:16:00;100724.09;;;4.78;89.77
41800;BME280;27468;47.460;19.034;2023-11-19T09:18:29;100725.91;;;4.85;89.87
41800;BME280;27468;47.460;19.034;2023-11-19T09:20:54;100732.03;;;4.87;89.31
41800;BME280;27468;47.460;19.034;2023-11-19T09:23:20;100716.34;;;4.84;89.21
41800;BME280;27468;47.460;19.034;2023-11-19T09:25:45;100679.59;;;4.68;88.84
41800;BME280;27468;47.460;19.034;2023-11-19T09:28:11;100725.94;;;4.87;88.26
41800;BME280;27468;47.460;19.034;2023-11-19T09:30:36;100707.50;;;4.72;88.23
41800;BME280;27468;47.460;19.034;2023-11-19T09:33:02;100716.31;;;4.81;88.82
41800;BME280;27468;47.460;19.034;2023-11-19T09:35:27;100652.47;;;4.49;88.67
41800;BME280;27468;47.460;19.034;2023-11-19T09:37:53;100691.00;;;4.77;88.39
41800;BME280;27468;47.460;19.034;2023-11-19T09:40:18;100698.97;;;4.91;88.31
41800;BME280;27468;47.460;19.034;2023-11-19T09:42:44;100657.88;;;4.70;88.13
41800;BME280;27468;47.460;19.034;2023-11-19T09:45:15;100683.28;;;4.89;87.92
41800;BME280;27468;47.460;19.034;2023-11-19T09:47:44;100702.53;;;5.01;87.73
41800;BME280;27468;47.460;19.034;2023-11-19T09:50:16;100638.72;;;4.70;87.59
41800;BME280;27468;47.460;19.034;2023-11-19T09:52:43;100623.03;;;4.68;87.36
41800;BME280;27468;47.460;19.034;2023-11-19T09:55:08;100603.78;;;4.52;87.24
41800;BME280;27468;47.460;19.034;2023-11-19T09:57:34;100630.97;;;4.80;87.46
41800;BME280;27468;47.460;19.034;2023-11-19T10:00:03;100616.16;;;4.79;87.36
41800;BME280;27468;47.460;19.034;2023-11-19T10:02:31;100649.50;;;5.12;87.22
41800;BME280;27468;47.460;19.034;2023-11-19T10:04:59;100671.38;;;5.32;86.81
41800;BME280;27468;47.460;19.034;2023-11-19T10:07:28;100650.44;;;5.28;86.21
41800;BME280;27468;47.460;19.034;2023-11-19T10:09:53;100659.22;;;5.41;85.54
41800;BME280;27468;47.460;19.034;2023-11-19T10:12:19;100577.13;;;5.04;84.80
41800;BME280;27468;47.460;19.034;2023-11-19T10:14:45;100641.81;;;5.46;84.46
41800;BME280;27468;47.460;19.034;2023-11-19T10:17:12;100569.34;;;5.13;84.69
41800;BME280;27468;47.460;19.034;2023-11-19T10:19:40;100600.78;;;5.31;84.43
41800;BME280;27468;47.460;19.034;2023-11-19T10:22:07;100623.56;;;5.53;84.47
41800;BME280;27468;47.460;19.034;2023-11-19T10:24:33;100501.31;;;4.94;83.67
41800;BME280;27468;47.460;19.034;2023-11-19T10:27:02;100519.72;;;5.14;84.05
41800;BME280;27468;47.460;19.034;2023-11-19T10:29:30;100627.16;;;5.77;83.45
41800;BME280;27468;47.460;19.034;2023-11-19T10:31:56;100621.03;;;5.82;83.45
41800;BME280;27468;47.460;19.034;2023-11-19T10:34:25;100603.59;;;5.71;82.70
41800;BME280;27468;47.460;19.034;2023-11-19T10:36:51;100561.63;;;5.46;82.98
41800;BME280;27468;47.460;19.034;2023-11-19T10:39:17;100597.44;;;5.59;83.21
41800;BME280;27468;47.460;19.034;2023-11-19T10:41:43;100607.91;;;5.61;83.10
41800;BME280;27468;47.460;19.034;2023-11-19T10:44:08;100559.00;;;5.42;83.46
41800;BME280;27468;47.460;19.034;2023-11-19T10:46:41;100554.69;;;5.50;83.47
41800;BME280;27468;47.460;19.034;2023-11-19T10:49:07;100599.22;;;5.79;84.04
41800;BME280;27468;47.460;19.034;2023-11-19T10:51:33;100600.97;;;5.80;83.99
41800;BME280;27468;47.460;19.034;2023-11-19T10:54:03;100602.72;;;5.85;84.56
41800;BME280;27468;47.460;19.034;2023-11-19T10:56:32;100615.88;;;5.94;84.03
41800;BME280;27468;47.460;19.034;2023-11-19T10:59:01;100565.22;;;5.76;84.05
41800;BME280;27468;47.460;19.034;2023-11-19T11:01:41;100563.47;;;5.67;84.92
41800;BME280;27468;47.460;19.034;2023-11-19T11:04:19;100551.25;;;5.63;85.31
41800;BME280;27468;47.460;19.034;2023-11-19T11:06:47;100566.97;;;5.74;85.63
41800;BME280;27468;47.460;19.034;2023-11-19T11:09:13;100506.72;;;5.48;85.74
41800;BME280;27468;47.460;19.034;2023-11-19T11:11:40;100579.19;;;5.85;85.85
41800;BME280;27468;47.460;19.034;2023-11-19T11:14:12;100563.47;;;5.78;86.59
41800;BME280;27468;47.460;19.034;2023-11-19T11:16:43;100546.91;;;5.79;86.98
41800;BME280;27468;47.460;19.034;2023-11-19T11:19:12;100524.22;;;5.70;87.24
41800;BME280;27468;47.460;19.034;2023-11-19T11:21:40;100511.13;;;5.62;87.13
41800;BME280;27468;47.460;19.034;2023-11-19T11:32:43;100547.88;;;6.10;86.97
41800;BME280;27468;47.460;19.034;2023-11-19T11:38:09;100510.28;;;5.85;87.56
41800;BME280;27468;47.460;19.034;2023-11-19T11:40:35;100561.84;;;6.22;87.46
41800;BME280;27468;47.460;19.034;2023-11-19T11:43:02;100516.44;;;6.01;86.97
41800;BME280;27468;47.460;19.034;2023-11-19T11:45:40;100526.94;;;6.13;87.00
41800;BME280;27468;47.460;19.034;2023-11-19T11:48:14;100536.53;;;6.20;87.40
41800;BME280;27468;47.460;19.034;2023-11-19T11:50:55;100493.75;;;5.95;87.71
41800;BME280;27468;47.460;19.034;2023-11-19T11:53:23;100492.88;;;5.96;87.94
41800;BME280;27468;47.460;19.034;2023-11-19T11:58:21;100483.28;;;6.00;88.77
41800;BME280;27468;47.460;19.034;2023-11-19T12:00:51;100505.13;;;6.15;89.29
41800;BME280;27468;47.460;19.034;2023-11-19T12:03:20;100519.03;;;6.40;88.57
41800;BME280;27468;47.460;19.034;2023-11-19T12:05:49;100451.00;;;6.10;88.73
41800;BME280;27468;47.460;19.034;2023-11-19T12:08:18;100434.44;;;6.14;88.42
41800;BME280;27468;47.460;19.034;2023-11-19T12:10:52;100477.16;;;6.42;88.37
41800;BME280;27468;47.460;19.034;2023-11-19T12:13:19;100475.38;;;6.56;87.59
41800;BME280;27468;47.460;19.034;2023-11-19T12:18:23;100443.97;;;6.41;87.73
41800;BME280;27468;47.460;19.034;2023-11-19T12:20:48;100457.94;;;6.50;88.05
41800;BME280;27468;47.460;19.034;2023-11-19T12:23:14;100418.72;;;6.32;87.97
41800;BME280;27468;47.460;19.034;2023-11-19T12:25:40;100411.66;;;6.46;88.11
41800;BME280;27468;47.460;19.034;2023-11-19T12:28:05;100416.03;;;6.46;88.15
41800;BME280;27468;47.460;19.034;2023-11-19T12:30:31;100405.56;;;6.49;88.31
41800;BME280;27468;47.460;19.034;2023-11-19T12:32:56;100431.69;;;6.73;87.27
41800;BME280;27468;47.460;19.034;2023-11-19T12:35:23;100442.13;;;6.79;87.15
41800;BME280;27468;47.460;19.034;2023-11-19T12:37:52;100419.44;;;6.78;87.36
41800;BME280;27468;47.460;19.034;2023-11-19T12:40:22;100423.78;;;6.84;87.59
41800;BME280;27468;47.460;19.034;2023-11-19T12:42:49;100399.38;;;6.70;86.85
41800;BME280;27468;47.460;19.034;2023-11-19T12:45:15;100435.09;;;6.92;87.19
41800;BME280;27468;47.460;19.034;2023-11-19T12:47:42;100403.72;;;6.78;86.52
41800;BME280;27468;47.460;19.034;2023-11-19T12:50:09;100421.13;;;6.91;85.76
41800;BME280;27468;47.460;19.034;2023-11-19T12:52:38;100377.53;;;6.69;85.42
41800;BME280;27468;47.460;19.034;2023-11-19T12:55:05;100354.91;;;6.51;85.50
41800;BME280;27468;47.460;19.034;2023-11-19T12:57:40;100371.44;;;6.66;85.72
41800;BME280;27468;47.460;19.034;2023-11-19T13:00:06;100400.19;;;6.82;85.64
41800;BME280;27468;47.460;19.034;2023-11-19T13:02:49;100394.97;;;6.79;85.33